sensor_id;sensor_type;location;lat;lon;timestamp;temperature;humidity
8093;DHT22;4089;52.420;13.334;2023-05-20T00:02:08;12.10;99.90
8093;DHT22;4089;52.420;13.334;2023-05-20T00:04:35;12.10;99.90
8093;DHT22;4089;52.420;13.334;2023-05-20T00:07:02;12.00;99.90
8093;DHT22;4089;52.420;13.334;2023-05-20T00:09:29;12.00;99.90
8093;DHT22;4089;52.420;13.334;2023-05-20T00:11:56;12.00;99.90
8093;DHT22;4089;52.420;13.334;2023-05-20T00:14:23;12.00;99.90
8093;DHT22;4089;52.420;13.334;2023-05-20T00:16:49;11.90;99.90
8093;DHT22;4089;52.420;13.334;2023-05-20T00:19:16;11.90;99.90
8093;DHT22;4089;52.420;13.334;2023-05-20T00:21:43;11.90;99.90
8093;DHT22;4089;52.420;13.334;2023-05-20T00:24:10;11.90;99.90
8093;DHT22;4089;52.420;13.334;2023-05-20T00:26:37;11.80;99.90
8093;DHT22;4089;52.420;13.334;2023-05-20T00:29:04;11.80;99.90
8093;DHT22;4089;52.420;13.334;2023-05-20T00:31:30;11.80;99.90
8093;DHT22;4089;52.420;13.334;2023-05-20T00:33:57;11.70;99.90
8093;DHT22;4089;52.420;13.334;2023-05-20T00:36:24;11.70;99.90
8093;DHT22;4089;52.420;13.334;2023-05-20T00:38:51;11.70;99.90
8093;DHT22;4089;52.420;13.334;2023-05-20T00:41:18;11.70;99.90
8093;DHT22;4089;52.420;13.334;2023-05-20T00:43:44;11.70;99.90
8093;DHT22;4089;52.420;13.334;2023-05-20T00:46:11;11.70;99.90
8093;DHT22;4089;52.420;13.334;2023-05-20T00:48:41;11.70;99.90
8093;DHT22;4089;52.420;13.334;2023-05-20T00:51:10;11.70;99.90
8093;DHT22;4089;52.420;13.334;2023-05-20T00:53:37;11.60;99.90
8093;DHT22;4089;52.420;13.334;2023-05-20T00:56:05;11.60;99.90
8093;DHT22;4089;52.420;13.334;2023-05-20T00:58:33;11.60;99.90
8093;DHT22;4089;52.420;13.334;2023-05-20T01:01:02;11.60;99.90
8093;DHT22;4089;52.420;13.334;2023-05-20T01:03:29;11.60;99.90
8093;DHT22;4089;52.420;13.334;2023-05-20T01:05:56;11.60;99.90
8093;DHT22;4089;52.420;13.334;2023-05-20T01:08:24;11.50;99.90
8093;DHT22;4089;52.420;13.334;2023-05-20T01:10:58;11.50;99.90
8093;DHT22;4089;52.420;13.334;2023-05-20T01:13:32;11.50;99.90
8093;DHT22;4089;52.420;13.334;2023-05-20T01:16:00;11.50;99.90
8093;DHT22;4089;52.420;13.334;2023-05-20T01:18:30;11.50;99.90
8093;DHT22;4089;52.420;13.334;2023-05-20T01:20:58;11.50;99.90
8093;DHT22;4089;52.420;13.334;2023-05-20T01:23:38;11.40;99.90
8093;DHT22;4089;52.420;13.334;2023-05-20T01:26:08;11.40;99.90
8093;DHT22;4089;52.420;13.334;2023-05-20T01:28:40;11.30;99.90
8093;DHT22;4089;52.420;13.334;2023-05-20T01:31:25;11.30;99.90
8093;DHT22;4089;52.420;13.334;2023-05-20T01:33:58;11.30;99.90
8093;DHT22;4089;52.420;13.334;2023-05-20T01:36:25;11.30;99.90
8093;DHT22;4089;52.420;13.334;2023-05-20T01:38:54;11.30;99.90
8093;DHT22;4089;52.420;13.334;2023-05-20T01:41:23;11.30;99.90
8093;DHT22;4089;52.420;13.334;2023-05-20T01:43:50;11.30;99.90
8093;DHT22;4089;52.420;13.334;2023-05-20T01:46:17;11.30;99.90
8093;DHT22;4089;52.420;13.334;2023-05-20T01:48:44;11.30;99.90
8093;DHT22;4089;52.420;13.334;2023-05-20T01:51:11;11.20;99.90
8093;DHT22;4089;52.420;13.334;2023-05-20T01:53:38;11.20;99.90
8093;DHT22;4089;52.420;13.334;2023-05-20T01:56:05;11.10;99.90
8093;DHT22;4089;52.420;13.334;2023-05-20T01:58:32;11.20;99.90
8093;DHT22;4089;52.420;13.334;2023-05-20T02:00:59;11.20;99.90
8093;DHT22;4089;52.420;13.334;2023-05-20T02:03:25;11.10;99.90
8093;DHT22;4089;52.420;13.334;2023-05-20T02:05:52;11.20;99.90
8093;DHT22;4089;52.420;13.334;2023-05-20T02:08:19;11.10;99.90
8093;DHT22;4089;52.420;13.334;2023-05-20T02:10:49;11.10;99.90
8093;DHT22;4089;52.420;13.334;2023-05-20T02:13:15;11.10;99.90
8093;DHT22;4089;52.420;13.334;2023-05-20T02:15:42;11.10;99.90
8093;DHT22;4089;52.420;13.334;2023-05-20T02:18:10;11.10;99.90
8093;DHT22;4089;52.420;13.334;2023-05-20T02:20:38;11.10;99.90
8093;DHT22;4089;52.420;13.334;2023-05-20T02:23:05;11.00;99.90
8093;DHT22;4089;52.420;13.334;2023-05-20T02:25:32;11.00;99.90
8093;DHT22;4089;52.420;13.334;2023-05-20T02:28:00;11.10;99.90
8093;DHT22;4089;52.420;13.334;2023-05-20T02:30:27;11.10;99.90
8093;DHT22;4089;52.420;13.334;2023-05-20T02:32:53;11.10;99.90
8093;DHT22;4089;52.420;13.334;2023-05-20T02:35:20;11.10;99.90
8093;DHT22;4089;52.420;13.334;2023-05-20T02:37:47;11.20;99.90
8093;DHT22;4089;52.420;13.334;2023-05-20T02:40:14;11.30;99.90
8093;DHT22;4089;52.420;13.334;2023-05-20T02:42:41;11.30;99.90
8093;DHT22;4089;52.420;13.334;2023-05-20T02:45:08;11.30;99.90
8093;DHT22;4089;52.420;13.334;2023-05-20T02:47:35;11.40;99.90
8093;DHT22;4089;52.420;13.334;2023-05-20T02:50:01;11.40;99.90
8093;DHT22;4089;52.420;13.334;2023-05-20T02:52:28;11.40;99.90
8093;DHT22;4089;52.420;13.334;2023-05-20T02:54:55;11.40;99.90
8093;DHT22;4089;52.420;13.334;2023-05-20T02:57:22;11.40;99.90
8093;DHT22;4089;52.420;13.334;2023-05-20T02:59:49;11.40;99.90
8093;DHT22;4089;52.420;13.334;2023-05-20T03:02:15;11.40;99.90
8093;DHT22;4089;52.420;13.334;2023-05-20T03:04:42;11.40;99.90
8093;DHT22;4089;52.420;13.334;2023-05-20T03:07:12;11.50;99.90
8093;DHT22;4089;52.420;13.334;2023-05-20T03:09:40;11.50;99.90
8093;DHT22;4089;52.420;13.334;2023-05-20T03:12:07;11.50;99.90
8093;DHT22;4089;52.420;13.334;2023-05-20T03:14:34;11.50;99.90
8093;DHT22;4089;52.420;13.334;2023-05-20T03:17:01;11.60;99.90
8093;DHT22;4089;52.420;13.334;2023-05-20T03:19:27;11.60;99.90
8093;DHT22;4089;52.420;13.334;2023-05-20T03:21:54;11.50;99.90
8093;DHT22;4089;52.420;13.334;2023-05-20T03:24:21;11.50;99.90
8093;DHT22;4089;52.420;13.334;2023-05-20T03:26:49;11.50;99.90
8093;DHT22;4089;52.420;13.334;2023-05-20T03:29:16;11.60;99.90
8093;DHT22;4089;52.420;13.334;2023-05-20T03:31:43;11.60;99.90
8093;DHT22;4089;52.420;13.334;2023-05-20T03:34:10;11.60;99.90
8093;DHT22;4089;52.420;13.334;2023-05-20T03:36:37;11.60;99.90
8093;DHT22;4089;52.420;13.334;2023-05-20T03:39:04;11.60;99.90
8093;DHT22;4089;52.420;13.334;2023-05-20T03:41:31;11.60;99.90
8093;DHT22;4089;52.420;13.334;2023-05-20T03:43:58;11.60;99.90
8093;DHT22;4089;52.420;13.334;2023-05-20T03:46:25;11.70;99.90
8093;DHT22;4089;52.420;13.334;2023-05-20T03:48:52;11.70;99.90
8093;DHT22;4089;52.420;13.334;2023-05-20T03:51:19;11.70;99.90
8093;DHT22;4089;52.420;13.334;2023-05-20T03:53:45;11.80;99.90
8093;DHT22;4089;52.420;13.334;2023-05-20T03:56:12;11.80;99.90
8093;DHT22;4089;52.420;13.334;2023-05-20T03:58:39;11.80;99.90
8093;DHT22;4089;52.420;13.334;2023-05-20T04:01:06;11.80;99.90
8093;DHT22;4089;52.420;13.334;2023-05-20T04:03:33;11.90;99.90
8093;DHT22;4089;52.420;13.334;2023-05-20T04:06:00;11.90;99.90
8093;DHT22;4089;52.420;13.334;2023-05-20T04:08:26;11.90;99.90
8093;DHT22;4089;52.420;13.334;2023-05-20T04:10:56;11.90;99.90
8093;DHT22;4089;52.420;13.334;2023-05-20T04:13:24;11.80;99.90
8093;DHT22;4089;52.420;13.334;2023-05-20T04:15:51;11.80;99.90
8093;DHT22;4089;52.420;13.334;2023-05-20T04:18:18;11.70;99.90
8093;DHT22;4089;52.420;13.334;2023-05-20T04:20:46;11.80;99.90
8093;DHT22;4089;52.420;13.334;2023-05-20T04:23:12;11.80;99.90
8093;DHT22;4089;52.420;13.334;2023-05-20T04:25:39;11.80;99.90
8093;DHT22;4089;52.420;13.334;2023-05-20T04:28:07;11.90;99.90
8093;DHT22;4089;52.420;13.334;2023-05-20T04:30:36;11.90;99.90
8093;DHT22;4089;52.420;13.334;2023-05-20T04:33:04;11.90;99.90
8093;DHT22;4089;52.420;13.334;2023-05-20T04:35:31;11.90;99.90
8093;DHT22;4089;52.420;13.334;2023-05-20T04:38:00;11.90;99.90
8093;DHT22;4089;52.420;13.334;2023-05-20T04:40:27;11.90;99.90
8093;DHT22;4089;52.420;13.334;2023-05-20T04:42:54;11.90;99.90
8093;DHT22;4089;52.420;13.334;2023-05-20T04:45:24;11.90;99.90
8093;DHT22;4089;52.420;13.334;2023-05-20T04:47:52;11.90;99.90
8093;DHT22;4089;52.420;13.334;2023-05-20T04:50:19;12.00;99.90
8093;DHT22;4089;52.420;13.334;2023-05-20T04:52:46;11.90;99.90
8093;DHT22;4089;52.420;13.334;2023-05-20T04:55:14;11.90;99.90
8093;DHT22;4089;52.420;13.334;2023-05-20T04:57:41;11.90;99.90
8093;DHT22;4089;52.420;13.334;2023-05-20T05:00:10;11.90;99.90
8093;DHT22;4089;52.420;13.334;2023-05-20T05:02:38;11.90;99.90
8093;DHT22;4089;52.420;13.334;2023-05-20T05:05:05;12.00;99.90
8093;DHT22;4089;52.420;13.334;2023-05-20T05:07:32;12.00;99.90
8093;DHT22;4089;52.420;13.334;2023-05-20T05:09:59;12.00;99.90
8093;DHT22;4089;52.420;13.334;2023-05-20T05:12:26;12.10;99.90
8093;DHT22;4089;52.420;13.334;2023-05-20T05:14:53;12.10;99.90
8093;DHT22;4089;52.420;13.334;2023-05-20T05:17:20;12.10;99.90
8093;DHT22;4089;52.420;13.334;2023-05-20T05:19:47;12.10;99.90
8093;DHT22;4089;52.420;13.334;2023-05-20T05:22:14;12.10;99.90
8093;DHT22;4089;52.420;13.334;2023-05-20T05:24:40;12.30;99.90
8093;DHT22;4089;52.420;13.334;2023-05-20T05:27:07;12.30;99.90
8093;DHT22;4089;52.420;13.334;2023-05-20T05:29:34;12.20;99.90
8093;DHT22;4089;52.420;13.334;2023-05-20T05:32:01;12.10;99.90
8093;DHT22;4089;52.420;13.334;2023-05-20T05:34:27;12.20;99.90
8093;DHT22;4089;52.420;13.334;2023-05-20T05:36:54;12.20;99.90
8093;DHT22;4089;52.420;13.334;2023-05-20T05:39:21;12.30;99.90
8093;DHT22;4089;52.420;13.334;2023-05-20T05:41:48;12.30;99.90
8093;DHT22;4089;52.420;13.334;2023-05-20T05:44:15;12.30;99.90
8093;DHT22;4089;52.420;13.334;2023-05-20T05:46:41;12.30;99.90
8093;DHT22;4089;52.420;13.334;2023-05-20T05:49:08;12.40;99.90
8093;DHT22;4089;52.420;13.334;2023-05-20T05:51:35;12.40;99.90
8093;DHT22;4089;52.420;13.334;2023-05-20T05:54:04;12.50;99.90
8093;DHT22;4089;52.420;13.334;2023-05-20T05:56:31;12.50;99.90
8093;DHT22;4089;52.420;13.334;2023-05-20T05:58:58;12.60;99.90
8093;DHT22;4089;52.420;13.334;2023-05-20T06:01:25;12.50;99.90
8093;DHT22;4089;52.420;13.334;2023-05-20T06:03:52;12.50;99.90
8093;DHT22;4089;52.420;13.334;2023-05-20T06:06:19;12.50;99.90
8093;DHT22;4089;52.420;13.334;2023-05-20T06:08:46;12.50;99.90
8093;DHT22;4089;52.420;13.334;2023-05-20T06:11:13;12.60;99.90
8093;DHT22;4089;52.420;13.334;2023-05-20T06:13:40;12.70;99.90
8093;DHT22;4089;52.420;13.334;2023-05-20T06:16:06;12.70;99.90
8093;DHT22;4089;52.420;13.334;2023-05-20T06:18:33;12.70;99.90
8093;DHT22;4089;52.420;13.334;2023-05-20T06:21:01;12.80;99.90
8093;DHT22;4089;52.420;13.334;2023-05-20T06:23:28;12.90;99.90
8093;DHT22;4089;52.420;13.334;2023-05-20T06:25:58;13.00;99.90
8093;DHT22;4089;52.420;13.334;2023-05-20T06:28:26;13.00;99.90
8093;DHT22;4089;52.420;13.334;2023-05-20T06:30:53;13.10;99.90
8093;DHT22;4089;52.420;13.334;2023-05-20T06:33:22;13.10;99.90
8093;DHT22;4089;52.420;13.334;2023-05-20T06:35:52;13.00;99.90
8093;DHT22;4089;52.420;13.334;2023-05-20T06:38:19;12.90;99.90
8093;DHT22;4089;52.420;13.334;2023-05-20T06:40:47;12.90;99.90
8093;DHT22;4089;52.420;13.334;2023-05-20T06:43:17;12.90;99.90
8093;DHT22;4089;52.420;13.334;2023-05-20T06:45:44;13.00;99.90
8093;DHT22;4089;52.420;13.334;2023-05-20T06:48:11;13.20;99.90
8093;DHT22;4089;52.420;13.334;2023-05-20T06:50:37;13.20;99.90
8093;DHT22;4089;52.420;13.334;2023-05-20T06:53:04;13.30;99.90
8093;DHT22;4089;52.420;13.334;2023-05-20T06:55:31;13.20;99.90
8093;DHT22;4089;52.420;13.334;2023-05-20T06:57:58;13.30;99.90
8093;DHT22;4089;52.420;13.334;2023-05-20T07:00:25;13.40;99.90
8093;DHT22;4089;52.420;13.334;2023-05-20T07:02:52;13.40;99.90
8093;DHT22;4089;52.420;13.334;2023-05-20T07:05:19;13.40;99.90
8093;DHT22;4089;52.420;13.334;2023-05-20T07:07:46;13.40;99.90
8093;DHT22;4089;52.420;13.334;2023-05-20T07:10:13;13.50;99.90
8093;DHT22;4089;52.420;13.334;2023-05-20T07:12:39;13.50;99.90
8093;DHT22;4089;52.420;13.334;2023-05-20T07:15:07;13.50;99.90
8093;DHT22;4089;52.420;13.334;2023-05-20T07:17:34;13.50;99.90
8093;DHT22;4089;52.420;13.334;2023-05-20T07:20:01;13.50;99.90
8093;DHT22;4089;52.420;13.334;2023-05-20T07:22:29;13.50;99.90
8093;DHT22;4089;52.420;13.334;2023-05-20T07:24:56;13.50;99.90
8093;DHT22;4089;52.420;13.334;2023-05-20T07:27:24;13.60;99.90
8093;DHT22;4089;52.420;13.334;2023-05-20T07:29:51;13.60;99.90
8093;DHT22;4089;52.420;13.334;2023-05-20T07:32:18;13.70;99.90
8093;DHT22;4089;52.420;13.334;2023-05-20T07:34:45;13.90;99.90
8093;DHT22;4089;52.420;13.334;2023-05-20T07:37:11;14.00;99.90
8093;DHT22;4089;52.420;13.334;2023-05-20T07:39:38;14.10;99.90
8093;DHT22;4089;52.420;13.334;2023-05-20T07:42:05;14.20;99.90
8093;DHT22;4089;52.420;13.334;2023-05-20T07:44:32;14.30;99.90
8093;DHT22;4089;52.420;13.334;2023-05-20T07:46:59;14.30;99.90
8093;DHT22;4089;52.420;13.334;2023-05-20T07:49:26;14.40;99.90
8093;DHT22;4089;52.420;13.334;2023-05-20T07:51:53;14.50;99.90
8093;DHT22;4089;52.420;13.334;2023-05-20T07:54:20;14.80;99.90
8093;DHT22;4089;52.420;13.334;2023-05-20T07:56:46;14.90;99.90
8093;DHT22;4089;52.420;13.334;2023-05-20T07:59:13;15.00;99.90
8093;DHT22;4089;52.420;13.334;2023-05-20T08:01:41;15.00;99.90
8093;DHT22;4089;52.420;13.334;2023-05-20T08:04:08;15.20;99.90
8093;DHT22;4089;52.420;13.334;2023-05-20T08:06:35;15.40;99.90
8093;DHT22;4089;52.420;13.334;2023-05-20T08:09:02;15.50;99.90
8093;DHT22;4089;52.420;13.334;2023-05-20T08:11:29;15.70;99.90
8093;DHT22;4089;52.420;13.334;2023-05-20T08:13:56;15.80;99.90
8093;DHT22;4089;52.420;13.334;2023-05-20T08:16:23;15.80;99.90
8093;DHT22;4089;52.420;13.334;2023-05-20T08:18:50;15.90;99.90
8093;DHT22;4089;52.420;13.334;2023-05-20T08:21:17;15.80;99.90
8093;DHT22;4089;52.420;13.334;2023-05-20T08:23:43;15.70;99.90
8093;DHT22;4089;52.420;13.334;2023-05-20T08:26:10;15.80;99.90
8093;DHT22;4089;52.420;13.334;2023-05-20T08:28:37;15.90;99.90
8093;DHT22;4089;52.420;13.334;2023-05-20T08:31:04;15.90;99.90
8093;DHT22;4089;52.420;13.334;2023-05-20T08:33:31;16.00;99.90
8093;DHT22;4089;52.420;13.334;2023-05-20T08:35:58;16.00;99.90
8093;DHT22;4089;52.420;13.334;2023-05-20T08:38:25;15.90;99.90
8093;DHT22;4089;52.420;13.334;2023-05-20T08:40:53;15.80;99.90
8093;DHT22;4089;52.420;13.334;2023-05-20T08:43:21;15.90;99.90
8093;DHT22;4089;52.420;13.334;2023-05-20T08:45:49;16.10;99.90
8093;DHT22;4089;52.420;13.334;2023-05-20T08:48:18;16.10;99.90
8093;DHT22;4089;52.420;13.334;2023-05-20T08:50:49;16.10;99.90
8093;DHT22;4089;52.420;13.334;2023-05-20T08:53:17;15.90;99.90
8093;DHT22;4089;52.420;13.334;2023-05-20T08:55:55;15.90;99.90
8093;DHT22;4089;52.420;13.334;2023-05-20T08:58:30;16.00;99.90
8093;DHT22;4089;52.420;13.334;2023-05-20T09:00:58;15.80;99.90
8093;DHT22;4089;52.420;13.334;2023-05-20T09:03:24;15.80;99.90
8093;DHT22;4089;52.420;13.334;2023-05-20T09:05:52;15.90;99.90
8093;DHT22;4089;52.420;13.334;2023-05-20T09:08:23;15.80;99.90
8093;DHT22;4089;52.420;13.334;2023-05-20T09:10:53;15.60;99.90
8093;DHT22;4089;52.420;13.334;2023-05-20T09:13:22;15.50;99.90
8093;DHT22;4089;52.420;13.334;2023-05-20T09:15:49;15.50;99.90
8093;DHT22;4089;52.420;13.334;2023-05-20T09:18:16;15.50;99.90
8093;DHT22;4089;52.420;13.334;2023-05-20T09:20:45;15.60;99.90
8093;DHT22;4089;52.420;13.334;2023-05-20T09:23:12;15.70;99.90
8093;DHT22;4089;52.420;13.334;2023-05-20T09:25:39;15.70;99.90
8093;DHT22;4089;52.420;13.334;2023-05-20T09:28:07;15.80;99.90
8093;DHT22;4089;52.420;13.334;2023-05-20T09:30:34;15.80;99.90
8093;DHT22;4089;52.420;13.334;2023-05-20T09:33:03;15.80;99.90
8093;DHT22;4089;52.420;13.334;2023-05-20T09:35:34;15.80;99.90
8093;DHT22;4089;52.420;13.334;2023-05-20T09:38:04;15.80;99.90
8093;DHT22;4089;52.420;13.334;2023-05-20T09:40:31;15.90;99.90
8093;DHT22;4089;52.420;13.334;2023-05-20T09:43:02;16.10;99.90
8093;DHT22;4089;52.420;13.334;2023-05-20T09:45:29;16.20;99.90
8093;DHT22;4089;52.420;13.334;2023-05-20T09:47:56;16.20;99.90
8093;DHT22;4089;52.420;13.334;2023-05-20T09:50:23;16.30;99.90
8093;DHT22;4089;52.420;13.334;2023-05-20T09:52:52;16.20;99.90
8093;DHT22;4089;52.420;13.334;2023-05-20T09:55:21;16.10;99.90
8093;DHT22;4089;52.420;13.334;2023-05-20T09:57:48;15.90;99.90
8093;DHT22;4089;52.420;13.334;2023-05-20T10:00:15;16.00;99.90
8093;DHT22;4089;52.420;13.334;2023-05-20T10:02:52;16.10;99.90
8093;DHT22;4089;52.420;13.334;2023-05-20T10:05:22;16.20;99.90
8093;DHT22;4089;52.420;13.334;2023-05-20T10:20:59;16.90;99.90
8093;DHT22;4089;52.420;13.334;2023-05-20T10:23:28;17.00;99.90
8093;DHT22;4089;52.420;13.334;2023-05-20T10:25:56;17.10;99.90
8093;DHT22;4089;52.420;13.334;2023-05-20T10:28:30;17.10;99.90
8093;DHT22;4089;52.420;13.334;2023-05-20T10:30:59;17.10;99.90
8093;DHT22;4089;52.420;13.334;2023-05-20T10:33:27;17.00;99.90
8093;DHT22;4089;52.420;13.334;2023-05-20T10:35:58;17.10;99.90
8093;DHT22;4089;52.420;13.334;2023-05-20T10:38:25;17.10;99.90
8093;DHT22;4089;52.420;13.334;2023-05-20T10:40:52;17.20;99.90
8093;DHT22;4089;52.420;13.334;2023-05-20T10:43:26;17.50;99.90
8093;DHT22;4089;52.420;13.334;2023-05-20T10:45:56;17.60;99.90
8093;DHT22;4089;52.420;13.334;2023-05-20T10:48:25;17.70;99.90
8093;DHT22;4089;52.420;13.334;2023-05-20T10:50:57;17.90;99.90
8093;DHT22;4089;52.420;13.334;2023-05-20T10:53:26;17.90;99.90
8093;DHT22;4089;52.420;13.334;2023-05-20T10:56:00;17.80;99.90
8093;DHT22;4089;52.420;13.334;2023-05-20T10:58:27;17.80;99.90
8093;DHT22;4089;52.420;13.334;2023-05-20T11:00:54;17.80;99.90
8093;DHT22;4089;52.420;13.334;2023-05-20T11:03:22;17.80;99.90
8093;DHT22;4089;52.420;13.334;2023-05-20T11:05:50;17.80;99.90
8093;DHT22;4089;52.420;13.334;2023-05-20T11:08:17;17.80;99.90
8093;DHT22;4089;52.420;13.334;2023-05-20T11:10:55;17.60;99.90
8093;DHT22;4089;52.420;13.334;2023-05-20T11:13:23;17.70;99.90
8093;DHT22;4089;52.420;13.334;2023-05-20T11:15:50;18.00;99.90
8093;DHT22;4089;52.420;13.334;2023-05-20T11:18:17;18.10;99.90
8093;DHT22;4089;52.420;13.334;2023-05-20T11:20:45;18.10;99.90
8093;DHT22;4089;52.420;13.334;2023-05-20T11:23:14;18.00;99.90
8093;DHT22;4089;52.420;13.334;2023-05-20T11:25:41;18.00;99.90
8093;DHT22;4089;52.420;13.334;2023-05-20T11:28:14;18.10;99.90
8093;DHT22;4089;52.420;13.334;2023-05-20T11:30:42;18.20;99.90
8093;DHT22;4089;52.420;13.334;2023-05-20T11:33:11;18.20;99.90
8093;DHT22;4089;52.420;13.334;2023-05-20T11:35:52;18.30;99.90
8093;DHT22;4089;52.420;13.334;2023-05-20T11:38:20;18.30;99.90
8093;DHT22;4089;52.420;13.334;2023-05-20T11:40:54;18.00;99.90
8093;DHT22;4089;52.420;13.334;2023-05-20T11:43:22;18.20;99.90
8093;DHT22;4089;52.420;13.334;2023-05-20T11:45:54;18.10;99.90
8093;DHT22;4089;52.420;13.334;2023-05-20T11:48:22;18.20;99.90
8093;DHT22;4089;52.420;13.334;2023-05-20T11:50:49;18.60;99.90
8093;DHT22;4089;52.420;13.334;2023-05-20T11:53:19;18.80;99.90
8093;DHT22;4089;52.420;13.334;2023-05-20T11:55:57;19.00;99.90
8093;DHT22;4089;52.420;13.334;2023-05-20T11:58:26;19.00;99.90
8093;DHT22;4089;52.420;13.334;2023-05-20T12:00:53;19.00;99.90
8093;DHT22;4089;52.420;13.334;2023-05-20T12:03:31;18.90;99.90
8093;DHT22;4089;52.420;13.334;2023-05-20T12:06:01;18.80;99.90
8093;DHT22;4089;52.420;13.334;2023-05-20T12:08:28;18.80;99.90
8093;DHT22;4089;52.420;13.334;2023-05-20T12:10:55;18.80;99.90
8093;DHT22;4089;52.420;13.334;2023-05-20T12:13:22;18.90;99.90
8093;DHT22;4089;52.420;13.334;2023-05-20T12:15:49;19.00;99.90
8093;DHT22;4089;52.420;13.334;2023-05-20T12:18:16;19.20;99.90
8093;DHT22;4089;52.420;13.334;2023-05-20T12:20:43;19.40;99.90
8093;DHT22;4089;52.420;13.334;2023-05-20T12:23:09;19.30;99.90
8093;DHT22;4089;52.420;13.334;2023-05-20T12:25:36;19.30;99.90
8093;DHT22;4089;52.420;13.334;2023-05-20T12:28:03;19.40;99.90
8093;DHT22;4089;52.420;13.334;2023-05-20T12:30:30;19.30;99.90
8093;DHT22;4089;52.420;13.334;2023-05-20T12:32:57;18.90;99.90
8093;DHT22;4089;52.420;13.334;2023-05-20T12:35:35;18.70;99.90
8093;DHT22;4089;52.420;13.334;2023-05-20T12:38:02;19.00;99.90
8093;DHT22;4089;52.420;13.334;2023-05-20T12:40:29;19.20;99.90
8093;DHT22;4089;52.420;13.334;2023-05-20T12:42:55;19.50;99.90
8093;DHT22;4089;52.420;13.334;2023-05-20T12:45:22;19.80;99.90
8093;DHT22;4089;52.420;13.334;2023-05-20T12:47:49;19.80;99.90
8093;DHT22;4089;52.420;13.334;2023-05-20T12:50:17;19.80;99.90
8093;DHT22;4089;52.420;13.334;2023-05-20T12:52:43;19.80;99.90
8093;DHT22;4089;52.420;13.334;2023-05-20T12:55:11;19.80;99.90
8093;DHT22;4089;52.420;13.334;2023-05-20T12:57:42;19.80;99.90
8093;DHT22;4089;52.420;13.334;2023-05-20T13:00:10;19.90;99.90
8093;DHT22;4089;52.420;13.334;2023-05-20T13:02:38;20.00;99.90
8093;DHT22;4089;52.420;13.334;2023-05-20T13:05:06;20.00;99.90
8093;DHT22;4089;52.420;13.334;2023-05-20T13:07:33;19.70;99.90
8093;DHT22;4089;52.420;13.334;2023-05-20T13:10:00;19.60;99.90
8093;DHT22;4089;52.420;13.334;2023-05-20T13:12:27;19.90;99.90
8093;DHT22;4089;52.420;13.334;2023-05-20T13:14:53;19.80;99.90
8093;DHT22;4089;52.420;13.334;2023-05-20T13:17:20;19.80;99.90
8093;DHT22;4089;52.420;13.334;2023-05-20T13:19:47;19.70;99.90
8093;DHT22;4089;52.420;13.334;2023-05-20T13:22:14;19.60;99.90
8093;DHT22;4089;52.420;13.334;2023-05-20T13:24:41;19.40;99.90
8093;DHT22;4089;52.420;13.334;2023-05-20T13:27:08;19.30;99.90
8093;DHT22;4089;52.420;13.334;2023-05-20T13:29:34;19.20;99.90
8093;DHT22;4089;52.420;13.334;2023-05-20T13:32:02;19.40;99.90
8093;DHT22;4089;52.420;13.334;2023-05-20T13:34:29;19.80;99.90
8093;DHT22;4089;52.420;13.334;2023-05-20T13:36:57;20.20;99.90
8093;DHT22;4089;52.420;13.334;2023-05-20T13:39:24;20.50;99.90
8093;DHT22;4089;52.420;13.334;2023-05-20T13:41:50;21.10;99.90
8093;DHT22;4089;52.420;13.334;2023-05-20T13:44:19;20.90;99.90
8093;DHT22;4089;52.420;13.334;2023-05-20T13:46:46;21.00;99.90
8093;DHT22;4089;52.420;13.334;2023-05-20T13:49:13;21.10;99.90
8093;DHT22;4089;52.420;13.334;2023-05-20T13:51:40;21.60;99.90
8093;DHT22;4089;52.420;13.334;2023-05-20T13:54:06;21.80;99.90
8093;DHT22;4089;52.420;13.334;2023-05-20T13:56:33;21.50;99.90
8093;DHT22;4089;52.420;13.334;2023-05-20T13:59:00;21.60;99.90
8093;DHT22;4089;52.420;13.334;2023-05-20T14:01:29;22.10;99.90
8093;DHT22;4089;52.420;13.334;2023-05-20T14:03:56;22.40;99.90
8093;DHT22;4089;52.420;13.334;2023-05-20T14:06:23;22.50;99.90
8093;DHT22;4089;52.420;13.334;2023-05-20T14:08:53;22.70;99.90
8093;DHT22;4089;52.420;13.334;2023-05-20T14:11:20;22.60;99.90
8093;DHT22;4089;52.420;13.334;2023-05-20T14:13:47;22.80;99.90
8093;DHT22;4089;52.420;13.334;2023-05-20T14:16:14;23.20;99.90
8093;DHT22;4089;52.420;13.334;2023-05-20T14:18:41;23.30;99.70
8093;DHT22;4089;52.420;13.334;2023-05-20T14:21:08;23.30;99.70
8093;DHT22;4089;52.420;13.334;2023-05-20T14:23:34;23.40;99.30
8093;DHT22;4089;52.420;13.334;2023-05-20T14:26:01;23.20;98.80
8093;DHT22;4089;52.420;13.334;2023-05-20T14:28:28;22.90;99.40
8093;DHT22;4089;52.420;13.334;2023-05-20T14:30:55;22.70;99.50
8093;DHT22;4089;52.420;13.334;2023-05-20T14:33:22;22.50;99.60
8093;DHT22;4089;52.420;13.334;2023-05-20T14:35:48;22.40;99.90
8093;DHT22;4089;52.420;13.334;2023-05-20T14:38:15;21.80;99.90
8093;DHT22;4089;52.420;13.334;2023-05-20T14:40:43;21.60;99.90
8093;DHT22;4089;52.420;13.334;2023-05-20T14:43:10;21.70;99.90
8093;DHT22;4089;52.420;13.334;2023-05-20T14:45:37;21.60;99.90
8093;DHT22;4089;52.420;13.334;2023-05-20T14:48:04;21.50;99.90
8093;DHT22;4089;52.420;13.334;2023-05-20T14:50:32;21.50;99.90
8093;DHT22;4089;52.420;13.334;2023-05-20T14:52:59;21.60;99.90
8093;DHT22;4089;52.420;13.334;2023-05-20T14:55:26;21.80;99.90
8093;DHT22;4089;52.420;13.334;2023-05-20T14:57:53;21.60;99.90
8093;DHT22;4089;52.420;13.334;2023-05-20T15:00:19;21.60;99.90
8093;DHT22;4089;52.420;13.334;2023-05-20T15:02:46;21.70;99.90
8093;DHT22;4089;52.420;13.334;2023-05-20T15:05:13;21.90;99.90
8093;DHT22;4089;52.420;13.334;2023-05-20T15:07:40;21.90;99.90
8093;DHT22;4089;52.420;13.334;2023-05-20T15:10:07;21.60;99.90
8093;DHT22;4089;52.420;13.334;2023-05-20T15:12:34;21.40;99.90
8093;DHT22;4089;52.420;13.334;2023-05-20T15:15:01;21.20;99.90
8093;DHT22;4089;52.420;13.334;2023-05-20T15:17:28;21.40;99.90
8093;DHT22;4089;52.420;13.334;2023-05-20T15:19:55;21.40;99.90
8093;DHT22;4089;52.420;13.334;2023-05-20T15:22:22;21.30;99.90
8093;DHT22;4089;52.420;13.334;2023-05-20T15:24:48;21.00;99.90
8093;DHT22;4089;52.420;13.334;2023-05-20T15:27:15;20.90;99.90
8093;DHT22;4089;52.420;13.334;2023-05-20T15:29:42;21.00;99.90
8093;DHT22;4089;52.420;13.334;2023-05-20T15:32:09;20.80;99.90
8093;DHT22;4089;52.420;13.334;2023-05-20T15:34:36;20.80;99.90
8093;DHT22;4089;52.420;13.334;2023-05-20T15:37:03;21.00;99.90
8093;DHT22;4089;52.420;13.334;2023-05-20T15:39:30;20.90;99.90
8093;DHT22;4089;52.420;13.334;2023-05-20T15:41:57;20.70;99.90
8093;DHT22;4089;52.420;13.334;2023-05-20T15:44:28;20.50;99.90
8093;DHT22;4089;52.420;13.334;2023-05-20T15:46:55;20.40;99.90
8093;DHT22;4089;52.420;13.334;2023-05-20T15:49:22;20.60;99.90
8093;DHT22;4089;52.420;13.334;2023-05-20T15:51:49;20.70;99.90
8093;DHT22;4089;52.420;13.334;2023-05-20T15:54:29;20.70;99.90
8093;DHT22;4089;52.420;13.334;2023-05-20T15:56:56;20.70;99.90
8093;DHT22;4089;52.420;13.334;2023-05-20T15:59:23;20.70;99.90
8093;DHT22;4089;52.420;13.334;2023-05-20T16:01:50;20.80;99.90